Etusivu
METAR-TAF:

METAR-TAF

Lentoasemat :

South Alabama Regional Airport

Andalusia, Alabama, Yhdysvallat

Leveyspiiri: 31-18-00N, Pituuspiiri: 086-23-00W, korkeus merenpinnasta: 94 m

Tämänhetkinen sää

Tämä raportti tehtiin 6 minuuttia sitten, kello 23.56 UTC
Tuuli 6 kn idästä/koillisesta
Lämpötila 18°C
Kosteus 88%
Ilmanpaine 1013 hPa
Näkyvyys: 6.4 km
ukkosmyrsky, kovaa sadetta, utua

METAR: K79J 252356Z AUTO 07006KT 4SM +TSRA BR 18/16 A2990 RMK AO2 RAB35 TSB2258B34 SLP122 P0023 60122 T01780161 10261 20178 $

Aika: 19:02 (00:02 UTC)


TAF: puuttuu

Säähavainnot ja -ennusteet yli 4000 lentoasemalta (METAR- ja TAF-raportit).

Käytössä olevat sääasemat on merkitty karttaan keltaisilla ja punaisilla pisteillä.

Aseta hiiri pisteen päälle nähdäksesi sääaseman nimen.

Klikkaa sitten nähdäksesi säähavainnot ja -ennusteet.

Kartan vaihtaminen: klikkaa mustalla rastilla varustettuja vihreitä pisteitä, niin voit zoomata sisään; viivalla varustettua vihreää pistettä, niin voit zoomata ulos tai vihreitä nuolia, niin pääset viereisille kartoille.


METAR-TAF: